createdAt,value
2019-04-21T00:00:58.526Z,57.20
2019-04-21T00:03:27.566Z,46.50
2019-04-21T00:06:09.471Z,44.48
2019-04-21T00:08:42.814Z,44.23
2019-04-21T00:11:10.751Z,42.93
2019-04-21T00:13:33.147Z,45.37
2019-04-21T00:15:53.445Z,43.37
2019-04-21T00:18:15.524Z,41.53
2019-04-21T00:20:49.519Z,41.27
2019-04-21T00:23:30.013Z,45.30
2019-04-21T00:25:52.573Z,41.87
2019-04-21T00:28:33.244Z,42.08
2019-04-21T00:30:56.877Z,38.30
2019-04-21T00:33:12.508Z,46.70
2019-04-21T00:35:42.619Z,39.90
2019-04-21T00:38:25.177Z,37.67
2019-04-21T00:40:54.099Z,39.07
2019-04-21T00:43:15.192Z,35.37
2019-04-21T00:45:43.532Z,35.43
2019-04-21T00:48:21.369Z,30.03
2019-04-21T00:51:03.441Z,33.17
2019-04-21T00:53:22.570Z,35.63
2019-04-21T00:55:53.437Z,37.77
2019-04-21T00:58:19.453Z,40.17
2019-04-21T01:00:46.015Z,38.33
2019-04-21T01:03:14.505Z,35.50
2019-04-21T01:05:49.806Z,36.83
2019-04-21T01:08:09.960Z,33.07
2019-04-21T01:10:28.765Z,38.53
2019-04-21T01:13:12.905Z,41.87
2019-04-21T01:15:37.374Z,34.60
2019-04-21T01:18:06.358Z,31.17
2019-04-21T01:20:17.256Z,33.02
2019-04-21T01:22:41.501Z,30.20
2019-04-21T01:25:19.274Z,31.47
2019-04-21T01:27:56.446Z,30.20
2019-04-21T01:30:29.171Z,28.90
2019-04-21T01:32:55.768Z,25.53
2019-04-21T01:35:25.696Z,29.73
2019-04-21T01:38:10.943Z,28.90
2019-04-21T01:42:51.111Z,33.07
2019-04-21T01:45:14.737Z,36.33
2019-04-21T01:47:40.850Z,30.67
2019-04-21T01:50:05.749Z,43.97
2019-04-21T01:52:54.638Z,40.50
2019-04-21T01:55:13.795Z,45.40
2019-04-21T01:57:37.783Z,34.77
2019-04-21T02:00:00.486Z,48.67
2019-04-21T02:02:44.823Z,43.65
2019-04-21T02:05:10.549Z,43.20
2019-04-21T02:07:40.290Z,42.83
2019-04-21T02:10:12.821Z,47.97
2019-04-21T02:12:36.142Z,40.10
2019-04-21T02:15:04.825Z,38.03
2019-04-21T02:17:31.054Z,34.95
2019-04-21T02:19:57.366Z,32.53
2019-04-21T02:22:43.107Z,31.52
2019-04-21T02:25:01.016Z,31.17
2019-04-21T02:27:23.396Z,32.23
2019-04-21T02:29:55.248Z,29.80
2019-04-21T02:32:42.100Z,25.27
2019-04-21T02:35:18.730Z,27.23
2019-04-21T02:40:04.973Z,26.30
2019-04-21T02:42:31.528Z,28.00
2019-04-21T02:44:55.452Z,24.57
2019-04-21T02:47:37.981Z,27.17
2019-04-21T02:50:00.268Z,25.57
2019-04-21T02:55:02.700Z,28.10
2019-04-21T02:57:19.034Z,27.93
2019-04-21T02:59:49.688Z,30.50
2019-04-21T03:02:14.510Z,25.87
2019-04-21T03:04:42.250Z,27.25
2019-04-21T03:07:14.887Z,25.80
2019-04-21T03:12:11.187Z,31.07
2019-04-21T03:14:46.430Z,22.30
2019-04-21T03:17:09.113Z,27.53
2019-04-21T03:22:07.138Z,26.97
2019-04-21T03:24:59.061Z,26.57
2019-04-21T03:42:02.160Z,22.67
2019-04-21T03:44:26.700Z,23.47
2019-04-21T03:47:08.452Z,22.63
2019-04-21T03:49:28.999Z,23.07
2019-04-21T03:51:47.539Z,26.02
2019-04-21T03:57:10.568Z,28.83
2019-04-21T03:59:09.510Z,28.80
2019-04-21T04:01:41.070Z,24.13
2019-04-21T04:04:22.356Z,22.57
2019-04-21T04:06:43.071Z,23.20
2019-04-21T04:14:15.830Z,19.33
2019-04-21T04:16:41.267Z,18.20
2019-04-21T04:18:57.743Z,19.20
2019-04-21T04:26:33.432Z,21.77
2019-04-21T04:28:58.026Z,21.43
2019-04-21T04:31:30.420Z,23.27
2019-04-21T04:36:46.674Z,22.17
2019-04-21T04:39:04.771Z,21.33
2019-04-21T04:41:24.449Z,22.03
2019-04-21T04:43:54.673Z,22.02
2019-04-21T04:46:17.821Z,23.57
2019-04-21T04:48:54.966Z,26.52
2019-04-21T04:51:23.006Z,21.77
2019-04-21T04:59:20.210Z,22.87
2019-04-21T05:14:02.668Z,22.57
2019-04-21T05:16:37.870Z,24.07
2019-04-21T05:19:06.347Z,23.20
2019-04-21T05:21:30.653Z,22.00
2019-04-21T05:23:50.093Z,23.13
2019-04-21T05:26:10.972Z,22.43
2019-04-21T05:28:40.691Z,18.87
2019-04-21T05:31:19.836Z,23.53
2019-04-21T05:33:57.736Z,22.62
2019-04-21T05:36:20.444Z,21.53
2019-04-21T05:38:47.786Z,23.57
2019-04-21T05:41:11.055Z,22.50
2019-04-21T05:43:51.442Z,17.40
2019-04-21T05:46:25.345Z,18.43
2019-04-21T05:48:52.608Z,20.80
2019-04-21T05:51:13.129Z,20.47
2019-04-21T05:54:03.540Z,17.83
2019-04-21T05:56:33.631Z,17.67
2019-04-21T05:58:58.139Z,21.83
2019-04-21T06:01:34.516Z,19.47
2019-04-21T06:04:05.511Z,17.77
2019-04-21T06:06:34.051Z,17.20
2019-04-21T06:09:11.065Z,19.30
2019-04-21T06:11:35.965Z,25.73
2019-04-21T06:14:08.382Z,19.93
2019-04-21T06:16:46.356Z,19.90
2019-04-21T06:19:11.486Z,20.20
2019-04-21T06:21:38.865Z,20.83
2019-04-21T06:24:15.673Z,15.93
2019-04-21T06:27:03.207Z,16.73
2019-04-21T06:29:21.559Z,18.13
2019-04-21T06:32:12.732Z,21.90
2019-04-21T06:34:28.905Z,18.90
2019-04-21T06:41:49.257Z,20.73
2019-04-21T06:44:16.863Z,21.57
2019-04-21T06:46:54.818Z,18.10
2019-04-21T06:49:15.687Z,20.33
2019-04-21T06:51:48.209Z,21.10
2019-04-21T06:54:23.891Z,19.63
2019-04-21T06:57:00.277Z,20.20
2019-04-21T07:02:22.505Z,22.83
2019-04-21T07:04:54.842Z,18.40
2019-04-21T07:07:12.935Z,18.83
2019-04-21T07:09:35.710Z,18.27
2019-04-21T07:12:07.421Z,18.70
2019-04-21T07:14:34.567Z,16.32
2019-04-21T07:17:11.375Z,17.73
2019-04-21T07:19:36.656Z,16.48
2019-04-21T07:22:04.777Z,19.07
2019-04-21T07:24:31.888Z,19.45
2019-04-21T07:27:03.895Z,16.87
2019-04-21T07:29:32.570Z,15.97
2019-04-21T07:31:58.717Z,16.10
2019-04-21T07:34:28.751Z,16.43
2019-04-21T07:46:38.630Z,17.00
2019-04-21T07:49:12.804Z,15.45
2019-04-21T07:51:51.907Z,14.40
2019-04-21T07:54:17.174Z,16.30
2019-04-21T07:56:28.762Z,16.35
2019-04-21T07:59:18.905Z,13.70
2019-04-21T08:01:35.635Z,13.30
2019-04-21T08:04:14.727Z,11.30
2019-04-21T08:19:10.008Z,11.00
2019-04-21T08:26:36.898Z,11.20
2019-04-21T08:44:52.975Z,9.80
2019-04-21T08:47:30.046Z,7.80
2019-04-21T08:49:57.235Z,8.03
2019-04-21T08:52:42.739Z,9.10
2019-04-21T08:54:56.058Z,8.53
2019-04-21T08:57:35.691Z,7.30
2019-04-21T09:00:04.890Z,9.40
2019-04-21T09:02:35.143Z,8.40
2019-04-21T09:05:03.414Z,8.00
2019-04-21T09:07:36.313Z,6.90
2019-04-21T09:09:57.775Z,7.77
2019-04-21T09:12:29.097Z,7.35
2019-04-21T09:14:55.301Z,8.87
2019-04-21T09:17:22.067Z,8.63
2019-04-21T09:20:04.097Z,6.67
2019-04-21T09:22:17.416Z,8.10
2019-04-21T09:24:51.633Z,9.53
2019-04-21T09:29:37.962Z,7.03
2019-04-21T09:46:52.382Z,6.20
2019-04-21T09:56:48.391Z,7.65
2019-04-21T09:59:17.980Z,5.85
2019-04-21T10:06:39.588Z,5.25
2019-04-21T10:09:09.531Z,9.50
2019-04-21T10:11:37.758Z,4.22
2019-04-21T10:26:26.815Z,6.63
2019-04-21T10:28:58.968Z,7.30
2019-04-21T10:31:24.842Z,6.05
2019-04-21T10:48:53.083Z,6.00
2019-04-21T11:16:05.388Z,8.93
2019-04-21T11:28:22.987Z,7.67
2019-04-21T11:30:53.083Z,5.83
2019-04-21T11:33:22.968Z,7.45
2019-04-21T11:35:53.170Z,7.30
2019-04-21T11:38:26.635Z,6.33
2019-04-21T11:40:55.923Z,5.80
2019-04-21T12:08:20.768Z,6.33
2019-04-21T12:10:41.850Z,6.50
2019-04-21T12:13:12.071Z,5.47
2019-04-21T12:20:35.420Z,5.00
2019-04-21T12:23:07.191Z,5.07
2019-04-21T12:25:34.703Z,5.90
2019-04-21T12:28:01.771Z,5.73
2019-04-21T12:30:29.442Z,7.50
2019-04-21T12:33:00.198Z,6.83
2019-04-21T12:35:30.086Z,5.97
2019-04-21T12:38:00.603Z,5.43
2019-04-21T12:40:30.646Z,5.27
2019-04-21T12:43:00.964Z,6.00
2019-04-21T12:45:31.626Z,5.92
2019-04-21T12:48:00.034Z,6.78
2019-04-21T12:50:29.985Z,5.53
2019-04-21T12:53:01.363Z,5.70
2019-04-21T12:55:35.153Z,7.35
2019-04-21T12:58:01.442Z,6.30
2019-04-21T13:00:31.235Z,5.08
2019-04-21T13:03:01.548Z,5.20
2019-04-21T13:05:31.548Z,5.42
2019-04-21T13:08:03.679Z,8.80
2019-04-21T13:10:31.828Z,7.23
2019-04-21T13:12:59.998Z,6.12
2019-04-21T13:15:31.328Z,5.85
2019-04-21T13:18:01.023Z,8.90
2019-04-21T13:20:29.651Z,8.07
2019-04-21T13:22:57.795Z,5.33
2019-04-21T13:25:27.794Z,6.20
2019-04-21T13:27:54.459Z,5.80
2019-04-21T13:33:09.223Z,7.33
2019-04-21T13:35:39.025Z,6.33
2019-04-21T13:38:17.265Z,6.07
2019-04-21T13:40:53.402Z,7.07
2019-04-21T13:43:08.287Z,8.03
2019-04-21T13:45:34.288Z,5.90
2019-04-21T13:48:10.614Z,6.00
2019-04-21T13:50:37.291Z,6.33
2019-04-21T13:53:06.846Z,6.30
2019-04-21T13:55:36.906Z,5.77
2019-04-21T13:58:04.288Z,5.67
2019-04-21T14:00:35.803Z,5.63
2019-04-21T14:03:07.019Z,5.80
2019-04-21T14:05:33.172Z,6.40
2019-04-21T14:08:01.040Z,6.22
2019-04-21T14:10:29.218Z,6.05
2019-04-21T14:12:56.374Z,4.90
2019-04-21T14:15:24.620Z,5.53
2019-04-21T14:17:53.054Z,5.57
2019-04-21T14:20:22.374Z,5.23
2019-04-21T14:22:49.701Z,5.20
2019-04-21T14:25:19.640Z,5.67
2019-04-21T14:27:49.962Z,5.05
2019-04-21T14:30:18.575Z,5.03
2019-04-21T14:32:44.790Z,5.60
2019-04-21T14:38:00.519Z,7.47
2019-04-21T14:40:31.356Z,5.67
2019-04-21T14:42:56.282Z,6.50
2019-04-21T14:45:24.982Z,6.70
2019-04-21T14:47:54.155Z,5.53
2019-04-21T14:50:22.142Z,6.80
2019-04-21T14:52:50.645Z,5.77
2019-04-21T14:55:20.826Z,5.43
2019-04-21T14:57:51.679Z,4.93
2019-04-21T15:00:20.938Z,5.57
2019-04-21T15:02:51.816Z,6.67
2019-04-21T15:05:21.791Z,5.90
2019-04-21T15:07:49.029Z,5.03
2019-04-21T15:10:23.425Z,5.77
2019-04-21T15:12:47.758Z,6.37
2019-04-21T15:15:18.093Z,4.80
2019-04-21T15:17:47.646Z,5.12
2019-04-21T15:20:17.789Z,6.80
2019-04-21T15:22:50.289Z,5.33
2019-04-21T15:28:09.615Z,5.10
2019-04-21T15:30:36.584Z,5.80
2019-04-21T15:33:04.643Z,7.20
2019-04-21T15:35:40.652Z,5.30
2019-04-21T15:38:09.847Z,5.72
2019-04-21T15:40:50.543Z,5.23
2019-04-21T15:43:10.591Z,5.63
2019-04-21T15:45:42.389Z,5.10
2019-04-21T15:48:09.734Z,7.03
2019-04-21T15:50:44.231Z,5.57
2019-04-21T15:53:09.716Z,5.47
2019-04-21T15:55:38.997Z,6.10
2019-04-21T15:58:08.499Z,5.10
2019-04-21T16:00:36.348Z,5.00
2019-04-21T16:03:06.821Z,6.47
2019-04-21T16:05:35.178Z,4.87
2019-04-21T16:08:02.194Z,5.50
2019-04-21T16:10:56.653Z,5.70
2019-04-21T16:13:21.665Z,5.33
2019-04-21T16:15:48.517Z,4.80
2019-04-21T16:18:16.159Z,5.70
2019-04-21T16:20:43.910Z,4.97
2019-04-21T16:23:10.936Z,5.33
2019-04-21T16:25:39.015Z,5.80
2019-04-21T16:28:05.941Z,5.57
2019-04-21T16:30:34.073Z,5.20
2019-04-21T16:33:01.959Z,5.60
2019-04-21T16:35:29.550Z,6.17
2019-04-21T16:37:57.872Z,5.27
2019-04-21T16:40:25.476Z,5.47
2019-04-21T16:42:52.527Z,4.97
2019-04-21T16:45:19.204Z,5.60
2019-04-21T16:47:55.990Z,6.30
2019-04-21T16:50:23.870Z,5.73
2019-04-21T16:52:52.137Z,5.63
2019-04-21T16:55:19.171Z,4.53
2019-04-21T16:57:59.602Z,4.70
2019-04-21T17:00:29.077Z,6.37
2019-04-21T17:02:52.468Z,4.67
2019-04-21T17:05:22.384Z,4.90
2019-04-21T17:07:53.086Z,5.22
2019-04-21T17:10:20.519Z,4.90
2019-04-21T17:12:47.985Z,4.70
2019-04-21T17:15:32.326Z,4.83
2019-04-21T17:18:06.435Z,5.03
2019-04-21T17:22:46.183Z,4.60
2019-04-21T17:25:16.081Z,4.73
2019-04-21T17:27:47.276Z,4.70
2019-04-21T17:30:16.622Z,4.60
2019-04-21T17:32:48.431Z,4.77
2019-04-21T17:35:12.577Z,4.60
2019-04-21T17:37:42.364Z,6.70
2019-04-21T17:40:13.450Z,5.13
2019-04-21T17:42:48.875Z,6.15
2019-04-21T17:45:11.342Z,5.80
2019-04-21T17:47:48.222Z,5.20
2019-04-21T17:50:07.794Z,4.80
2019-04-21T17:52:45.127Z,4.87
2019-04-21T17:55:16.830Z,4.57
2019-04-21T17:57:57.053Z,5.10
2019-04-21T18:00:41.442Z,4.93
2019-04-21T18:03:01.854Z,4.30
2019-04-21T18:05:30.407Z,5.07
2019-04-21T18:07:51.450Z,5.03
2019-04-21T18:10:19.207Z,4.80
2019-04-21T18:12:45.895Z,4.77
2019-04-21T18:15:21.777Z,4.60
2019-04-21T18:17:36.578Z,4.63
2019-04-21T18:20:07.872Z,4.80
2019-04-21T18:27:34.492Z,7.13
2019-04-21T18:30:06.427Z,7.63
2019-04-21T18:32:39.725Z,7.97
2019-04-21T18:35:07.039Z,8.17
2019-04-21T18:40:21.512Z,8.67
2019-04-21T18:43:04.440Z,8.40
2019-04-21T18:47:53.918Z,8.10
2019-04-21T18:50:08.421Z,10.05
2019-04-21T18:52:55.579Z,9.85
2019-04-21T18:55:16.333Z,7.10
2019-04-21T18:57:41.524Z,9.53
2019-04-21T19:00:11.554Z,9.40
2019-04-21T19:05:15.494Z,9.00
2019-04-21T19:07:59.841Z,7.17
2019-04-21T19:10:29.582Z,6.25
2019-04-21T19:13:23.167Z,6.60
2019-04-21T19:15:27.250Z,7.43
2019-04-21T19:18:28.294Z,7.27
2019-04-21T19:20:26.015Z,7.10
2019-04-21T19:22:52.438Z,6.23
2019-04-21T19:25:23.894Z,8.15
2019-04-21T19:27:48.802Z,8.80
2019-04-21T19:30:30.074Z,6.70
2019-04-21T19:32:49.711Z,7.35
2019-04-21T19:35:02.381Z,7.23
2019-04-21T19:37:38.864Z,7.10
2019-04-21T19:40:09.613Z,7.70
2019-04-21T19:42:37.965Z,7.60
2019-04-21T19:45:10.702Z,7.23
2019-04-21T19:47:46.026Z,6.43
2019-04-21T19:50:10.741Z,6.45
2019-04-21T19:52:31.988Z,5.60
2019-04-21T19:54:50.620Z,6.87
2019-04-21T19:57:16.915Z,8.47
2019-04-21T19:59:48.459Z,6.40
2019-04-21T20:02:14.193Z,7.20
2019-04-21T20:04:50.318Z,6.33
2019-04-21T20:07:22.883Z,6.93
2019-04-21T20:09:56.579Z,6.83
2019-04-21T20:12:34.262Z,7.85
2019-04-21T20:15:00.684Z,8.27
2019-04-21T20:17:13.663Z,8.03
2019-04-21T20:19:32.416Z,7.47
2019-04-21T20:22:00.626Z,7.62
2019-04-21T20:24:31.688Z,6.50
2019-04-21T20:27:03.591Z,6.53
2019-04-21T20:29:47.077Z,8.43
2019-04-21T20:32:20.040Z,6.70
2019-04-21T20:34:38.676Z,8.30
2019-04-21T20:37:15.015Z,6.60
2019-04-21T20:39:28.332Z,7.97
2019-04-21T20:42:16.634Z,7.63
2019-04-21T20:44:48.354Z,6.67
2019-04-21T20:47:16.610Z,6.67
2019-04-21T20:49:41.518Z,6.50
2019-04-21T20:52:23.897Z,6.45
2019-04-21T20:54:49.382Z,10.30
2019-04-21T20:57:24.119Z,7.90
2019-04-21T20:59:43.947Z,6.63
2019-04-21T21:04:56.896Z,6.57
2019-04-21T21:07:50.620Z,6.13
2019-04-21T21:10:07.282Z,7.03
2019-04-21T21:14:57.768Z,7.63
2019-04-21T21:20:02.692Z,5.87
2019-04-21T21:22:27.910Z,6.07
2019-04-21T21:24:57.113Z,7.75
2019-04-21T21:27:26.751Z,7.57
2019-04-21T21:29:56.620Z,6.63
2019-04-21T21:32:32.122Z,6.23
2019-04-21T21:34:59.645Z,6.30
2019-04-21T21:37:32.291Z,7.00
2019-04-21T21:40:04.098Z,7.33
2019-04-21T21:42:11.828Z,7.63
2019-04-21T21:44:40.764Z,6.30
2019-04-21T21:47:25.304Z,7.73
2019-04-21T21:49:52.701Z,6.20
2019-04-21T21:52:18.274Z,5.80
2019-04-21T21:54:37.960Z,6.93
2019-04-21T21:57:08.582Z,6.47
2019-04-21T21:59:38.274Z,6.03
2019-04-21T22:02:09.012Z,8.27
2019-04-21T22:04:44.463Z,7.90
2019-04-21T22:07:12.387Z,8.33
2019-04-21T22:09:36.503Z,7.73
2019-04-21T22:12:06.595Z,7.27
2019-04-21T22:14:41.071Z,7.23
2019-04-21T22:17:20.037Z,9.87
2019-04-21T22:20:01.849Z,7.63
2019-04-21T22:22:18.009Z,7.47
2019-04-21T22:24:46.960Z,7.27
2019-04-21T22:27:03.166Z,8.17
2019-04-21T22:29:36.335Z,7.50
2019-04-21T22:32:07.836Z,6.87
2019-04-21T22:34:34.290Z,10.43
2019-04-21T22:37:14.323Z,10.15
2019-04-21T22:39:44.718Z,7.80
2019-04-21T22:42:05.806Z,6.83
2019-04-21T22:44:22.797Z,8.03
2019-04-21T22:46:58.404Z,8.45
2019-04-21T22:49:19.946Z,9.97
2019-04-21T22:51:50.044Z,10.08
2019-04-21T22:54:22.827Z,8.40
2019-04-21T22:56:53.039Z,9.80
2019-04-21T22:59:20.049Z,7.83
2019-04-21T23:01:47.452Z,10.73
2019-04-21T23:04:11.989Z,9.57
2019-04-21T23:06:40.901Z,8.87
2019-04-21T23:09:08.800Z,9.80
2019-04-21T23:11:43.675Z,8.60
2019-04-21T23:14:09.688Z,7.90
2019-04-21T23:16:36.257Z,8.27
2019-04-21T23:21:55.455Z,8.03
2019-04-21T23:24:26.546Z,11.08
2019-04-21T23:26:49.310Z,11.05
2019-04-21T23:29:17.343Z,8.60
2019-04-21T23:31:52.129Z,9.98
2019-04-21T23:34:00.086Z,9.93
2019-04-21T23:36:31.365Z,8.90
2019-04-21T23:38:58.207Z,8.30
2019-04-21T23:41:26.024Z,10.70
2019-04-21T23:44:00.369Z,9.13
2019-04-21T23:46:26.746Z,15.35
2019-04-21T23:49:07.087Z,7.77
2019-04-21T23:51:31.404Z,7.97
2019-04-21T23:53:49.159Z,9.53
2019-04-21T23:56:23.195Z,7.80
2019-04-21T23:58:51.955Z,8.60
